Time;durP1;ratioP1;P1;durP2;ratioP2;P2;SDS_P1;SDS_P2;PMS_P1;PMS_P2;Temp;Humidity;BMP_temperature;BMP_pressure;BME280_temperature;BME280_humidity;BME280_pressure;Samples;Min_cycle;Max_cycle;Signal;HPM_P1;HPM_P2
2023/10/11 00:00:57;;;;;;;12.77;5.60;;;;;;;18.14;67.93;101235.91;7395754;19;20036;-64
2023/10/11 00:05:53;;;;;;;13.90;5.55;;;;;;;18.20;67.30;101230.81;7393794;19;20018;-64
2023/10/11 00:08:29;;;;;;;14.15;5.82;;;;;;;18.19;67.58;101237.13;7394355;19;20015;-64
2023/10/11 00:10:59;;;;;;;14.02;5.32;;;;;;;18.17;67.59;101239.16;7391780;19;20014;-64
2023/10/11 00:13:35;;;;;;;12.32;5.65;;;;;;;18.19;67.21;101238.97;7393415;19;20018;-64
2023/10/11 00:16:08;;;;;;;10.50;5.28;;;;;;;18.20;67.47;101236.16;7392502;19;20011;-64
2023/10/11 00:18:38;;;;;;;14.05;5.63;;;;;;;18.17;67.59;101239.16;7393781;19;20026;-64
2023/10/11 00:21:11;;;;;;;12.77;5.30;;;;;;;18.15;67.66;101230.41;7393470;19;20035;-64
2023/10/11 00:23:48;;;;;;;12.90;5.22;;;;;;;18.17;67.57;101233.78;7395641;19;20018;-64
2023/10/11 00:26:18;;;;;;;12.35;4.82;;;;;;;18.16;67.48;101225.88;7395112;19;20022;-64
2023/10/11 00:28:46;;;;;;;13.15;5.53;;;;;;;18.16;67.49;101224.06;7391681;19;20007;-64
2023/10/11 00:31:17;;;;;;;13.95;5.15;;;;;;;18.20;67.44;101229.94;7394590;19;20043;-64
2023/10/11 00:33:46;;;;;;;10.48;5.40;;;;;;;18.14;67.46;101220.66;7392842;19;20582;-64
2023/10/11 00:36:16;;;;;;;13.35;5.32;;;;;;;18.11;67.72;101212.94;7392183;19;20015;-64
2023/10/11 00:38:48;;;;;;;11.63;4.90;;;;;;;18.10;67.55;101227.34;7392984;19;20015;-64
2023/10/11 00:41:17;;;;;;;;;;;;;;;;;;;;;
2023/10/11 00:43:47;;;;;;;11.45;4.70;;;;;;;18.13;67.40;101224.34;7394208;19;20014;-64
2023/10/11 00:46:18;;;;;;;12.02;4.93;;;;;;;18.10;67.98;101219.28;7394258;19;20021;-64
2023/10/11 00:48:54;;;;;;;11.65;5.28;;;;;;;18.06;67.66;101219.75;7390872;19;20010;-64
2023/10/11 00:51:29;;;;;;;11.13;5.18;;;;;;;18.11;67.61;101217.44;7393855;19;20048;-64
2023/10/11 00:54:04;;;;;;;13.27;5.10;;;;;;;18.12;67.57;101222.66;7392622;19;20230;-64
2023/10/11 00:56:33;;;;;;;13.32;5.30;;;;;;;18.09;67.80;101222.13;7394394;19;20025;-64
2023/10/11 00:59:08;;;;;;;12.60;4.97;;;;;;;18.11;67.53;101215.59;7390643;19;20018;-64
2023/10/11 01:01:37;;;;;;;12.18;4.65;;;;;;;18.08;67.65;101213.22;7393775;19;20085;-64
2023/10/11 01:04:06;;;;;;;10.40;4.65;;;;;;;18.07;67.88;101203.50;7391568;19;20030;-64
2023/10/11 01:06:34;;;;;;;12.93;5.28;;;;;;;18.06;67.93;101207.19;7394433;19;20037;-65
2023/10/11 01:09:14;;;;;;;13.55;4.93;;;;;;;18.05;67.80;101212.69;7388589;19;20018;-64
2023/10/11 01:11:45;;;;;;;16.15;5.47;;;;;;;17.99;68.28;101211.47;7393874;19;20007;-64
2023/10/11 01:14:14;;;;;;;11.75;5.28;;;;;;;17.99;68.15;101209.63;7392811;19;20484;-64
2023/10/11 01:16:42;;;;;;;9.95;5.22;;;;;;;18.05;67.88;101216.22;7394627;19;20082;-64
2023/10/11 01:19:11;;;;;;;10.55;5.25;;;;;;;18.05;67.60;101212.69;7397243;19;20047;-64
2023/10/11 01:21:41;;;;;;;10.57;4.78;;;;;;;18.02;67.90;101208.47;7401457;19;20035;-64
2023/10/11 01:24:09;;;;;;;13.55;5.50;;;;;;;18.02;68.02;101200.44;7400512;19;20018;-64
2023/10/11 01:26:37;;;;;;;14.68;5.80;;;;;;;18.02;67.97;101200.44;7400279;19;20511;-64
2023/10/11 01:29:05;;;;;;;13.55;5.47;;;;;;;17.99;68.14;101208.78;7396439;19;20025;-64
2023/10/11 01:31:34;;;;;;;11.20;5.15;;;;;;;17.97;68.08;101200.91;7397838;19;20045;-64
2023/10/11 01:34:02;;;;;;;13.85;4.90;;;;;;;18.00;67.89;101202.41;7399270;19;20018;-64
2023/10/11 01:36:30;;;;;;;10.27;4.88;;;;;;;18.00;68.17;101197.06;7400472;19;20086;-64
2023/10/11 01:39:01;;;;;;;13.95;5.97;;;;;;;17.98;68.17;101199.06;7394316;19;20039;-64
2023/10/11 01:41:29;;;;;;;12.48;5.55;;;;;;;17.98;68.35;101194.53;7400161;19;20018;-64
2023/10/11 01:43:57;;;;;;;13.27;5.35;;;;;;;17.96;68.17;101190.31;7399238;19;20023;-64
2023/10/11 01:46:27;;;;;;;10.70;4.65;;;;;;;17.96;68.34;101188.47;7399888;19;20014;-64
2023/10/11 01:48:56;;;;;;;15.57;5.72;;;;;;;17.94;68.19;101186.97;7395771;19;20386;-64
2023/10/11 01:51:27;;;;;;;9.70;5.15;;;;;;;17.90;68.50;101185.56;7399417;19;20022;-64
2023/10/11 01:53:56;;;;;;;11.85;5.28;;;;;;;17.89;68.36;101189.22;7399147;19;20034;-64
2023/10/11 01:56:24;;;;;;;11.18;5.55;;;;;;;17.90;68.51;101188.25;7395672;19;20022;-64
2023/10/11 01:58:53;;;;;;;10.48;5.60;;;;;;;17.93;68.05;101194.16;7393872;19;20023;-63
2023/10/11 02:01:26;;;;;;;13.32;4.95;;;;;;;17.96;68.25;101195.66;7397522;19;20022;-63
2023/10/11 02:03:59;;;;;;;13.32;6.00;;;;;;;17.97;68.20;101183.94;7398592;19;20464;-64
2023/10/11 02:06:32;;;;;;;12.90;5.30;;;;;;;17.95;68.36;101188.63;7399005;19;20019;-64
2023/10/11 02:09:00;;;;;;;11.43;5.93;;;;;;;17.93;68.16;101179.88;7394194;19;20341;-64
2023/10/11 02:11:31;;;;;;;12.23;5.80;;;;;;;17.90;68.54;101174.84;7399205;19;20013;-65
2023/10/11 02:13:58;;;;;;;13.23;6.07;;;;;;;17.89;68.00;101176.66;7398260;19;20023;-64
2023/10/11 02:16:28;;;;;;;13.23;5.30;;;;;;;17.93;68.23;101182.56;7389630;19;20026;-64
2023/10/11 02:18:58;;;;;;;11.77;5.78;;;;;;;17.93;68.49;101179.88;7395346;19;20456;-64
2023/10/11 02:21:30;;;;;;;10.88;4.82;;;;;;;17.91;68.54;101179.22;7398660;19;20383;-64
2023/10/11 02:23:59;;;;;;;10.85;5.65;;;;;;;17.92;68.52;101175.53;7397463;19;20011;-64
2023/10/11 02:26:32;;;;;;;12.55;5.85;;;;;;;17.90;68.25;101177.53;7398693;19;20031;-64
2023/10/11 02:29:00;;;;;;;13.15;6.22;;;;;;;17.87;68.90;101172.47;7392344;19;20040;-64
2023/10/11 02:31:36;;;;;;;11.90;5.55;;;;;;;17.88;68.43;101169.63;7397993;19;20021;-64
2023/10/11 02:34:12;;;;;;;14.38;5.30;;;;;;;17.89;68.48;101163.25;7397581;19;20097;-64
2023/10/11 02:36:42;;;;;;;10.85;5.50;;;;;;;17.89;68.60;101159.75;7397094;19;20019;-64
2023/10/11 02:39:20;;;;;;;12.93;6.18;;;;;;;17.92;68.44;101162.97;7394749;19;20471;-64
2023/10/11 02:41:50;;;;;;;12.70;6.22;;;;;;;17.84;68.95;101154.00;7396238;19;20495;-64
2023/10/11 02:44:22;;;;;;;10.65;6.07;;;;;;;17.86;68.71;101168.94;7396228;19;20026;-64
2023/10/11 02:46:51;;;;;;;12.05;6.20;;;;;;;17.86;68.94;101157.34;7397091;19;20014;-64
2023/10/11 02:49:19;;;;;;;16.65;6.28;;;;;;;17.86;68.87;101160.91;7394281;19;20478;-64
2023/10/11 02:51:52;;;;;;;13.02;6.10;;;;;;;17.92;68.43;101151.41;7396724;19;20014;-64
2023/10/11 02:54:24;;;;;;;13.77;6.10;;;;;;;17.88;68.77;101148.19;7397790;19;20051;-64
2023/10/11 02:56:52;;;;;;;16.75;6.80;;;;;;;17.86;68.73;101147.50;7394870;19;20046;-64
2023/10/11 02:59:22;;;;;;;11.95;5.82;;;;;;;17.86;68.64;101142.16;7393415;19;20029;-64
2023/10/11 03:02:06;;;;;;;14.10;6.10;;;;;;;17.88;68.74;101150.03;7396354;19;20025;-64
2023/10/11 03:04:39;;;;;;;13.93;6.38;;;;;;;17.88;68.59;101139.31;7397085;19;20018;-64
2023/10/11 03:07:21;;;;;;;12.30;6.07;;;;;;;17.90;68.81;101142.69;7396462;19;20037;-64
2023/10/11 03:09:50;;;;;;;12.13;6.53;;;;;;;17.86;68.64;101131.44;7391667;19;20018;-64
2023/10/11 03:12:18;;;;;;;12.73;5.85;;;;;;;17.89;68.59;101135.63;7396826;19;20026;-64
2023/10/11 03:14:54;;;;;;;14.13;6.47;;;;;;;17.91;68.79;101134.50;7394734;19;20392;-64
2023/10/11 03:17:23;;;;;;;12.35;6.53;;;;;;;17.87;68.80;101126.91;7396504;19;20487;-64
2023/10/11 03:19:53;;;;;;;14.13;5.85;;;;;;;17.87;68.82;101126.91;7393385;19;20415;-64
2023/10/11 03:22:21;;;;;;;11.68;6.15;;;;;;;17.88;68.97;101132.09;7395965;19;20043;-64
2023/10/11 03:24:53;;;;;;;13.25;5.88;;;;;;;17.88;68.64;101136.63;7395803;19;20078;-64
2023/10/11 03:27:23;;;;;;;13.95;6.80;;;;;;;17.85;68.53;101127.03;7396481;19;20388;-64
2023/10/11 03:29:56;;;;;;;12.05;6.15;;;;;;;17.81;69.12;101123.00;7391679;19;20403;-64
2023/10/11 03:32:25;;;;;;;12.82;7.10;;;;;;;17.75;69.19;101118.25;7396150;19;20023;-64
2023/10/11 03:34:55;;;;;;;15.35;7.47;;;;;;;17.74;69.23;101101.31;7395349;19;20019;-64
2023/10/11 03:37:27;;;;;;;14.95;7.90;;;;;;;17.73;69.14;101096.09;7396028;19;20335;-64
2023/10/11 03:39:56;;;;;;;16.10;7.38;;;;;;;17.69;69.04;101098.22;7391460;19;20117;-64
2023/10/11 03:42:53;;;;;;;15.55;7.20;;;;;;;17.71;69.04;101090.88;7395941;19;20356;-64
2023/10/11 03:45:27;;;;;;;16.77;7.45;;;;;;;17.66;69.18;101093.16;7396966;19;20026;-64
2023/10/11 03:47:58;;;;;;;12.45;6.65;;;;;;;17.68;68.97;101090.34;7394551;19;20053;-64
2023/10/11 03:50:33;;;;;;;12.52;6.22;;;;;;;17.65;69.11;101098.69;7394798;19;20018;-64
2023/10/11 03:53:10;;;;;;;11.40;6.65;;;;;;;17.60;69.43;101093.78;7395019;19;20022;-64
2023/10/11 03:55:46;;;;;;;15.07;6.03;;;;;;;17.63;69.07;101087.25;7395213;19;20018;-64
2023/10/11 04:01:05;;;;;;;15.27;6.10;;;;;;;17.63;68.93;101096.16;7392778;19;20014;-64
2023/10/11 04:03:34;;;;;;;12.05;6.32;;;;;;;17.62;68.81;101112.38;7395474;19;20022;-64
2023/10/11 04:06:13;;;;;;;11.98;5.70;;;;;;;17.59;69.01;101099.25;7395094;19;20632;-64
2023/10/11 04:09:02;;;;;;;14.13;6.38;;;;;;;17.56;69.36;101102.28;7394232;19;20043;-64
2023/10/11 04:14:39;;;;;;;17.00;6.35;;;;;;;17.60;69.07;101087.59;7395426;19;20027;-64
2023/10/11 04:17:29;;;;;;;13.10;6.22;;;;;;;17.63;68.67;101088.13;7392493;19;20051;-63
2023/10/11 04:20:21;;;;;;;13.18;6.15;;;;;;;17.60;68.91;101079.53;7391154;19;20022;-63
2023/10/11 04:25:37;;;;;;;14.13;6.25;;;;;;;17.51;69.17;101065.19;7394093;19;20022;-63
2023/10/11 04:28:05;;;;;;;14.43;6.35;;;;;;;17.56;68.64;101054.06;7392979;19;20018;-63
2023/10/11 04:30:44;;;;;;;13.23;5.97;;;;;;;17.56;68.50;101054.06;7392973;19;20078;-63
2023/10/11 04:33:17;;;;;;;14.50;6.20;;;;;;;17.59;68.47;101064.44;7394476;19;20014;-63
2023/10/11 04:35:46;;;;;;;11.73;5.80;;;;;;;17.56;68.46;101073.66;7394684;19;20014;-64
2023/10/11 04:38:14;;;;;;;15.77;7.22;;;;;;;17.60;68.54;101076.88;7392946;19;20022;-63
2023/10/11 04:40:48;;;;;;;13.20;7.03;;;;;;;17.58;68.42;101074.31;7393121;19;20019;-63
2023/10/11 04:43:25;;;;;;;12.88;6.00;;;;;;;17.58;68.51;101071.66;7393958;19;20083;-63
2023/10/11 04:45:55;;;;;;;11.27;6.20;;;;;;;17.54;68.41;101071.09;7392977;19;20570;-63
2023/10/11 04:48:36;;;;;;;13.52;6.53;;;;;;;17.58;68.29;101068.97;7391876;19;20048;-63
2023/10/11 04:51:23;;;;;;;14.52;6.72;;;;;;;17.52;68.61;101078.47;7393780;19;20026;-63
2023/10/11 04:59:36;;;;;;;15.48;6.28;;;;;;;17.51;68.55;101089.31;7397338;19;20022;-64
2023/10/11 05:02:24;;;;;;;13.27;6.15;;;;;;;17.47;68.59;101086.06;7400604;19;20085;-64
2023/10/11 05:04:53;;;;;;;13.38;6.13;;;;;;;17.48;68.74;101081.59;7400331;19;20017;-64
2023/10/11 05:07:21;;;;;;;14.48;6.03;;;;;;;17.51;68.39;101074.09;7401344;19;20081;-63
2023/10/11 05:12:57;;;;;;;12.98;6.50;;;;;;;17.46;68.56;101071.00;7395451;19;20014;-64
2023/10/11 05:15:42;;;;;;;11.93;6.07;;;;;;;17.45;68.42;101074.69;7399546;19;20015;-64
2023/10/11 05:18:18;;;;;;;11.85;5.93;;;;;;;17.44;68.39;101069.50;7399580;19;20019;-64
2023/10/11 05:20:57;;;;;;;12.73;5.93;;;;;;;17.43;68.45;101070.47;7401223;19;20344;-63
2023/10/11 05:23:42;;;;;;;14.52;6.13;;;;;;;17.47;68.06;101064.66;7400965;19;20370;-63
2023/10/11 05:29:09;;;;;;;13.00;6.03;;;;;;;17.38;68.65;101059.38;7395813;19;20047;-64
2023/10/11 05:32:08;;;;;;;13.63;6.30;;;;;;;17.43;68.48;101065.13;7401196;19;20431;-63
2023/10/11 05:35:07;;;;;;;16.20;6.55;;;;;;;17.40;68.48;101078.78;7400723;19;20015;-63
2023/10/11 05:51:30;;;;;;;13.95;5.95;;;;;;;17.44;68.33;101098.97;7395954;19;20031;-63
2023/10/11 05:54:02;;;;;;;15.73;6.07;;;;;;;17.51;68.05;101091.97;7394657;19;20110;-63
2023/10/11 05:56:39;;;;;;;14.32;5.45;;;;;;;17.52;67.76;101083.81;7394551;19;20486;-63
2023/10/11 05:59:11;;;;;;;15.43;6.32;;;;;;;17.48;68.06;101073.56;7393111;19;20383;-63
2023/10/11 06:01:38;;;;;;;12.95;6.65;;;;;;;17.50;67.75;101076.91;7395901;19;20021;-63
2023/10/11 06:04:08;;;;;;;15.00;6.25;;;;;;;17.51;67.92;101066.06;7393903;19;20035;-63
2023/10/11 06:06:38;;;;;;;15.32;6.43;;;;;;;17.52;67.72;101091.00;7394394;19;20390;-64
2023/10/11 06:09:16;;;;;;;16.13;6.15;;;;;;;17.53;67.74;101081.97;7391042;19;20014;-64
2023/10/11 06:11:48;;;;;;;14.23;5.70;;;;;;;17.52;67.83;101080.31;7396659;19;20749;-64
2023/10/11 06:14:18;;;;;;;10.90;5.43;;;;;;;17.51;67.94;101073.22;7397550;19;20057;-64
2023/10/11 06:16:57;;;;;;;13.05;6.07;;;;;;;17.52;67.47;101081.13;7398298;19;20094;-63
2023/10/11 06:19:27;;;;;;;12.80;5.97;;;;;;;17.48;67.47;101084.28;7396258;19;20019;-63
2023/10/11 06:21:56;;;;;;;14.18;6.97;;;;;;;17.49;67.93;101085.94;7397801;19;20377;-63
2023/10/11 06:24:36;;;;;;;12.20;5.57;;;;;;;17.51;67.67;101084.81;7398551;19;20043;-63
2023/10/11 06:29:45;;;;;;;12.40;5.45;;;;;;;17.57;67.75;101088.72;7395816;19;21454;-63
2023/10/11 06:32:13;;;;;;;12.75;5.63;;;;;;;17.59;67.39;101086.75;7398492;19;20354;-63
2023/10/11 06:34:47;;;;;;;13.25;5.85;;;;;;;17.59;67.40;101088.56;7397520;19;20018;-63
2023/10/11 06:37:19;;;;;;;13.30;6.05;;;;;;;17.61;67.45;101062.47;7395915;19;20022;-63
2023/10/11 06:44:47;;;;;;;12.35;5.90;;;;;;;17.68;67.39;101093.03;7398138;19;20010;-63
2023/10/11 06:47:20;;;;;;;13.63;6.25;;;;;;;17.71;66.91;101085.53;7396030;19;20019;-64
2023/10/11 06:49:55;;;;;;;15.50;5.70;;;;;;;17.68;67.05;101091.19;7392789;19;20023;-64
2023/10/11 06:52:30;;;;;;;13.32;5.85;;;;;;;17.72;67.05;101092.56;7397889;19;20023;-64
2023/10/11 06:55:13;;;;;;;12.10;5.72;;;;;;;17.74;66.98;101105.78;7396639;19;20018;-64
2023/10/11 06:57:50;;;;;;;;;;;;;;;17.64;67.03;101095.16;7396538;19;20496;-64
2023/10/11 07:00:37;;;;;;;12.38;5.78;;;;;;;17.66;67.33;101095.84;7396167;19;20329;-65
2023/10/11 07:03:08;;;;;;;14.85;6.32;;;;;;;17.74;66.94;101108.47;7397298;19;20029;-65
2023/10/11 07:05:41;;;;;;;11.10;5.60;;;;;;;17.82;66.81;101100.59;7398508;19;20047;-62
2023/10/11 07:08:09;;;;;;;13.63;6.27;;;;;;;17.82;66.63;101092.53;7397726;19;20495;-62
2023/10/11 07:10:45;;;;;;;14.13;5.90;;;;;;;17.92;66.47;101093.28;7396819;19;20259;-62
2023/10/11 07:13:14;;;;;;;13.35;5.80;;;;;;;17.85;66.30;101102.94;7397252;19;20026;-62
2023/10/11 07:15:43;;;;;;;11.80;6.15;;;;;;;17.88;66.32;101096.44;7394913;19;20014;-62
2023/10/11 07:18:20;;;;;;;13.48;5.95;;;;;;;17.93;66.38;101084.28;7395047;19;20029;-62
2023/10/11 07:20:49;;;;;;;13.88;6.22;;;;;;;17.88;66.44;101099.13;7395093;19;20033;-62
2023/10/11 07:23:21;;;;;;;13.88;6.68;;;;;;;17.88;66.50;101096.44;7396570;19;20025;-62
2023/10/11 07:25:59;;;;;;;14.40;6.40;;;;;;;17.86;66.54;101106.44;7395535;19;20014;-62
2023/10/11 07:28:36;;;;;;;16.67;6.65;;;;;;;17.86;66.52;101099.28;7394259;19;20019;-62
2023/10/11 07:31:04;;;;;;;13.55;6.25;;;;;;;17.89;67.06;101100.78;7396088;19;20029;-63
2023/10/11 07:33:36;;;;;;;15.02;6.35;;;;;;;17.97;66.79;101107.09;7396597;19;20025;-63
2023/10/11 07:36:11;;;;;;;14.50;6.32;;;;;;;18.00;66.83;101105.94;7395530;19;20040;-63
2023/10/11 07:38:43;;;;;;;16.45;6.55;;;;;;;18.00;66.80;101089.84;7394054;19;20022;-63
2023/10/11 07:41:17;;;;;;;15.18;6.43;;;;;;;18.00;66.92;101088.00;7395156;19;20014;-63
2023/10/11 07:43:47;;;;;;;14.30;7.05;;;;;;;17.98;66.97;101087.34;7396444;19;20015;-62
2023/10/11 07:46:15;;;;;;;15.23;7.07;;;;;;;18.00;66.88;101096.06;7395687;19;20030;-62
2023/10/11 07:48:46;;;;;;;15.48;6.80;;;;;;;18.01;67.15;101104.97;7393423;19;20017;-62
2023/10/11 07:51:15;;;;;;;15.77;6.72;;;;;;;18.03;66.92;101111.84;7396143;19;20022;-62
2023/10/11 07:53:43;;;;;;;14.45;6.75;;;;;;;18.02;67.30;101112.84;7396886;19;20094;-62
2023/10/11 07:56:15;;;;;;;16.42;7.25;;;;;;;18.03;66.93;101124.41;7396405;19;20497;-63
2023/10/11 07:58:46;;;;;;;15.95;6.82;;;;;;;18.04;67.12;101118.03;7397029;19;20026;-63
2023/10/11 08:01:42;;;;;;;15.05;6.63;;;;;;;18.06;67.20;101126.78;7397137;19;20479;-63
2023/10/11 08:04:18;;;;;;;14.05;7.47;;;;;;;18.07;67.19;101128.44;7392551;19;20036;-63
2023/10/11 08:06:46;;;;;;;17.73;7.28;;;;;;;18.17;67.29;101115.00;7393553;19;20011;-63
2023/10/11 08:09:19;;;;;;;15.98;6.82;;;;;;;18.25;67.23;101134.66;7391339;19;20017;-63
2023/10/11 08:11:52;;;;;;;15.63;7.20;;;;;;;18.33;66.88;101136.56;7393603;19;20122;-63
2023/10/11 08:14:25;;;;;;;14.05;7.00;;;;;;;18.33;67.08;101130.38;7387016;19;20142;-63
2023/10/11 08:16:56;;;;;;;12.35;6.80;;;;;;;18.31;66.77;101119.78;7392593;19;20019;-63
2023/10/11 08:19:23;;;;;;;18.13;7.85;;;;;;;18.26;67.21;101111.38;7390449;19;20040;-63
2023/10/11 08:21:57;;;;;;;18.75;7.18;;;;;;;18.26;67.33;101106.00;7393452;19;20014;-63
2023/10/11 08:24:25;;;;;;;13.63;7.65;;;;;;;18.31;67.46;101100.19;7394891;19;20015;-63
2023/10/11 08:26:57;;;;;;;15.57;7.47;;;;;;;18.32;67.36;101105.41;7396999;19;20018;-63
2023/10/11 08:29:30;;;;;;;14.63;7.93;;;;;;;18.27;67.34;101108.53;7398909;19;20018;-63
2023/10/11 08:31:59;;;;;;;13.95;7.55;;;;;;;18.32;67.49;101102.72;7400830;19;20040;-63
2023/10/11 08:34:28;;;;;;;13.02;7.07;;;;;;;18.36;67.79;101082.63;7402370;19;20487;-63
2023/10/11 08:36:56;;;;;;;14.18;7.65;;;;;;;18.41;67.73;101100.94;7400746;19;20018;-63
2023/10/11 08:39:35;;;;;;;15.73;8.10;;;;;;;18.42;67.89;101090.03;7399626;19;20098;-63
2023/10/11 08:42:09;;;;;;;13.88;7.00;;;;;;;18.41;68.10;101098.25;7401087;19;20486;-64
2023/10/11 08:44:41;;;;;;;18.70;7.60;;;;;;;18.43;68.07;101093.56;7402958;19;20030;-63
2023/10/11 08:47:08;;;;;;;13.70;7.75;;;;;;;18.46;68.00;101087.91;7401016;19;20019;-63
2023/10/11 08:49:41;;;;;;;16.60;8.68;;;;;;;18.52;68.11;101084.59;7397941;19;20022;-63
2023/10/11 08:52:10;;;;;;;21.73;9.13;;;;;;;18.55;68.10;101078.94;7400991;19;20022;-63
2023/10/11 08:54:40;;;;;;;14.60;8.30;;;;;;;18.58;67.92;101085.78;7401360;19;20025;-63
2023/10/11 08:57:12;;;;;;;14.98;7.65;;;;;;;18.58;68.10;101080.44;7400416;19;20010;-63
2023/10/11 08:59:48;;;;;;;15.65;7.78;;;;;;;18.62;67.88;101069.25;7398676;19;20023;-63
2023/10/11 09:02:17;;;;;;;16.33;8.10;;;;;;;18.65;67.91;101073.44;7400837;19;20088;-63
2023/10/11 09:04:59;;;;;;;15.93;7.63;;;;;;;18.79;67.62;101083.63;7401893;19;20037;-63
2023/10/11 09:07:46;;;;;;;13.23;7.32;;;;;;;18.82;67.73;101079.81;7400560;19;20403;-64
2023/10/11 09:10:29;;;;;;;18.83;8.00;;;;;;;18.88;67.25;101071.94;7399814;19;20090;-63
2023/10/11 09:12:59;;;;;;;20.23;8.65;;;;;;;18.84;67.76;101078.63;7400136;19;20048;-63
2023/10/11 09:15:43;;;;;;;15.90;8.05;;;;;;;18.93;67.67;101082.22;7400887;19;20492;-63
2023/10/11 09:18:17;;;;;;;19.92;8.45;;;;;;;18.92;67.87;101077.81;7398341;19;20390;-64
2023/10/11 09:21:10;;;;;;;16.02;8.25;;;;;;;18.90;68.42;101077.16;7398751;19;20094;-63
2023/10/11 09:23:39;;;;;;;15.23;8.32;;;;;;;18.96;67.91;101077.38;7401164;19;20014;-63
2023/10/11 09:26:10;;;;;;;15.73;7.72;;;;;;;19.03;67.88;101084.75;7400295;19;20014;-63
2023/10/11 09:28:40;;;;;;;15.90;7.88;;;;;;;19.10;67.57;101083.97;7397631;19;20015;-63
2023/10/11 09:31:15;;;;;;;16.25;7.93;;;;;;;19.15;67.38;101088.84;7402426;19;20043;-63
2023/10/11 09:33:51;;;;;;;15.80;8.52;;;;;;;19.08;68.01;101087.81;7401906;19;20018;-63
2023/10/11 09:36:24;;;;;;;16.55;8.40;;;;;;;19.13;68.16;101089.03;7401016;19;20022;-64
2023/10/11 09:38:55;;;;;;;17.17;8.73;;;;;;;19.16;68.22;101083.34;7395151;19;20085;-64
2023/10/11 09:41:25;;;;;;;14.20;8.50;;;;;;;19.21;67.83;101085.53;7400443;19;20022;-64
2023/10/11 09:43:57;;;;;;;17.73;8.70;;;;;;;19.30;67.95;101100.66;7398818;19;20475;-64
2023/10/11 09:46:31;;;;;;;14.65;8.30;;;;;;;19.37;67.50;101108.91;7399954;19;20351;-63
2023/10/11 09:49:12;;;;;;;15.05;8.25;;;;;;;19.35;67.40;101122.53;7396297;19;20034;-64
2023/10/11 09:51:43;;;;;;;18.30;8.27;;;;;;;19.26;68.19;101125.31;7400573;19;20023;-65
2023/10/11 09:54:14;;;;;;;17.85;8.85;;;;;;;19.22;68.34;101125.63;7399272;19;20035;-65
2023/10/11 09:56:54;;;;;;;17.45;9.20;;;;;;;19.30;68.15;101137.44;7399905;19;20018;-64
2023/10/11 09:59:34;;;;;;;16.75;9.18;;;;;;;19.32;67.96;101125.53;7395910;19;20349;-64
2023/10/11 10:02:20;;;;;;;17.10;8.50;;;;;;;19.35;68.37;101117.16;7398747;19;20022;-63
2023/10/11 10:04:51;;;;;;;15.65;8.35;;;;;;;19.29;68.55;101135.75;7400014;19;20014;-63
2023/10/11 10:07:22;;;;;;;16.58;8.70;;;;;;;19.19;68.27;101139.41;7396919;19;20035;-63
2023/10/11 10:09:52;;;;;;;14.73;9.15;;;;;;;19.13;68.82;101148.09;7395627;19;20031;-64
2023/10/11 10:12:25;;;;;;;17.05;8.75;;;;;;;19.06;69.45;101156.94;7398925;19;20047;-64
2023/10/11 10:15:23;;;;;;;16.80;9.02;;;;;;;19.09;69.70;101175.41;7397843;19;20018;-64
2023/10/11 10:17:56;;;;;;;14.55;8.27;;;;;;;19.01;69.82;101162.78;7397143;19;20495;-63
2023/10/11 10:20:33;;;;;;;19.73;9.32;;;;;;;18.96;70.04;101178.50;7397583;19;20029;-63
2023/10/11 10:23:15;;;;;;;16.65;8.95;;;;;;;18.99;69.86;101178.19;7398614;19;20014;-63
2023/10/11 10:25:46;;;;;;;16.92;9.30;;;;;;;18.83;70.62;101172.72;7398972;19;20519;-64
2023/10/11 10:28:45;;;;;;;16.80;10.00;;;;;;;18.91;70.04;101187.03;7397936;19;20014;-64
2023/10/11 10:31:17;;;;;;;15.38;9.25;;;;;;;18.74;70.49;101191.44;7398757;19;20646;-64
2023/10/11 10:34:04;;;;;;;15.80;9.30;;;;;;;18.80;70.76;101189.97;7399747;19;20062;-64
2023/10/11 10:36:32;;;;;;;19.33;10.45;;;;;;;18.76;70.94;101204.69;7398997;19;20043;-62
2023/10/11 10:39:30;;;;;;;18.88;10.25;;;;;;;18.79;71.43;101209.75;7394352;19;20022;-62
2023/10/11 10:42:12;;;;;;;17.95;10.68;;;;;;;18.78;71.63;101191.97;7397882;19;20014;-64
2023/10/11 10:44:49;;;;;;;18.98;10.40;;;;;;;18.79;71.60;101204.38;7398794;19;20389;-64
2023/10/11 10:47:31;;;;;;;18.00;10.50;;;;;;;18.84;71.93;101209.28;7399517;19;20043;-64
2023/10/11 10:50:08;;;;;;;15.68;9.95;;;;;;;18.76;72.04;101196.66;7392270;19;20015;-63
2023/10/11 10:52:39;;;;;;;17.70;10.40;;;;;;;18.74;72.23;101190.59;7398373;19;20427;-64
2023/10/11 10:55:07;;;;;;;16.45;9.55;;;;;;;18.71;72.57;101194.44;7394855;19;20022;-64
2023/10/11 10:57:36;;;;;;;15.85;9.45;;;;;;;18.73;72.75;101196.94;7393641;19;20051;-63
2023/10/11 11:00:20;;;;;;;17.23;9.77;;;;;;;18.74;72.50;101190.59;7392798;19;20022;-63
2023/10/11 11:02:49;;;;;;;17.95;9.77;;;;;;;18.66;72.83;101183.31;7393753;19;20022;-63
2023/10/11 11:05:24;;;;;;;19.42;11.02;;;;;;;18.69;72.97;101184.81;7393789;19;20356;-63
2023/10/11 11:08:18;;;;;;;18.75;11.20;;;;;;;18.72;73.26;101173.81;7393292;19;20026;-63
2023/10/11 11:10:54;;;;;;;17.27;10.65;;;;;;;18.63;73.86;101170.19;7392054;19;20518;-63
2023/10/11 11:13:25;;;;;;;15.88;10.48;;;;;;;18.66;73.71;101169.88;7392966;19;20018;-63
2023/10/11 11:15:55;;;;;;;18.70;11.15;;;;;;;18.66;73.79;101183.31;7393068;19;20045;-63
2023/10/11 11:18:31;;;;;;;18.02;10.57;;;;;;;18.70;73.77;101181.16;7392026;19;20402;-63
2023/10/11 11:21:17;;;;;;;16.05;10.90;;;;;;;18.60;74.57;101181.22;7393902;19;20018;-63
2023/10/11 11:23:49;;;;;;;17.23;10.98;;;;;;;18.64;74.39;101184.44;7392525;19;20471;-63
2023/10/11 11:26:22;;;;;;;18.58;10.88;;;;;;;18.69;74.73;101174.91;7393319;19;20056;-63
2023/10/11 11:29:00;;;;;;;17.58;10.85;;;;;;;18.68;74.65;101170.56;7390376;19;20036;-63
2023/10/11 11:31:31;;;;;;;20.67;11.15;;;;;;;18.65;74.96;101159.28;7392793;19;20021;-64
2023/10/11 11:34:13;;;;;;;17.98;10.38;;;;;;;18.70;74.57;101157.88;7392429;19;20010;-63
2023/10/11 11:36:41;;;;;;;16.67;11.07;;;;;;;18.63;74.89;101167.50;7392472;19;20011;-63
2023/10/11 11:39:36;;;;;;;19.48;10.65;;;;;;;18.80;74.64;101149.72;7389795;19;20018;-63
2023/10/11 11:42:09;;;;;;;18.42;11.30;;;;;;;18.71;74.80;101154.19;7392333;19;20025;-63
2023/10/11 11:44:36;;;;;;;15.93;10.85;;;;;;;18.80;74.59;101141.66;7392778;19;20074;-63
2023/10/11 11:47:06;;;;;;;17.70;10.63;;;;;;;18.89;74.37;101140.72;7392714;19;20135;-64
2023/10/11 11:49:34;;;;;;;16.20;10.18;;;;;;;18.98;73.99;101134.41;7388934;19;20047;-64
2023/10/11 11:52:02;;;;;;;17.10;10.05;;;;;;;19.04;73.79;101118.66;7392800;19;20074;-64
2023/10/11 11:54:30;;;;;;;15.13;9.93;;;;;;;19.05;74.06;101117.69;7392222;19;20047;-64
2023/10/11 11:56:57;;;;;;;18.30;10.48;;;;;;;18.98;73.97;101142.47;7390597;19;20495;-64
2023/10/11 11:59:29;;;;;;;17.67;10.20;;;;;;;19.04;74.41;101130.25;7389669;19;20025;-64
2023/10/11 12:01:59;;;;;;;18.15;9.55;;;;;;;19.03;74.62;101133.09;7393257;19;20502;-64
2023/10/11 12:04:33;;;;;;;16.65;10.20;;;;;;;19.00;74.85;101131.56;7391613;19;20026;-64
2023/10/11 12:07:04;;;;;;;16.63;10.57;;;;;;;18.90;74.67;101129.00;7395664;19;20018;-64
2023/10/11 12:09:34;;;;;;;20.23;11.10;;;;;;;18.82;75.57;101120.88;7388894;19;20512;-64
2023/10/11 12:12:18;;;;;;;18.95;10.68;;;;;;;18.85;75.24;101120.59;7392035;19;20049;-64
2023/10/11 12:14:49;;;;;;;16.48;10.38;;;;;;;18.98;74.80;101109.41;7392560;19;20082;-63
2023/10/11 12:17:17;;;;;;;17.83;10.10;;;;;;;19.12;74.44;101089.19;7391592;19;20007;-63
2023/10/11 12:19:45;;;;;;;16.52;9.98;;;;;;;19.23;74.32;101089.75;7389359;19;20014;-63
2023/10/11 12:22:18;;;;;;;15.48;9.57;;;;;;;19.32;73.72;101087.09;7391952;19;20036;-63
2023/10/11 12:24:50;;;;;;;17.30;10.15;;;;;;;19.31;73.92;101070.13;7391706;19;20394;-63
2023/10/11 12:27:18;;;;;;;15.23;8.98;;;;;;;19.35;73.52;101076.03;7391478;19;20359;-63
2023/10/11 12:29:48;;;;;;;16.92;9.77;;;;;;;19.28;73.87;101077.69;7388105;19;20395;-63